sensor_id;sensor_type;location;lat;lon;timestamp;pressure;altitude;pressure_sealevel;temperature;humidity
76478;BME280;65309;49.790;18.972;2023-02-21T00:01:42;96413.91;;;8.49;64.71
76478;BME280;65309;49.790;18.972;2023-02-21T00:07:03;96405.84;;;8.45;64.10
76478;BME280;65309;49.790;18.972;2023-02-21T00:12:26;96410.38;;;8.34;64.88
76478;BME280;65309;49.790;18.972;2023-02-21T00:17:46;96376.03;;;8.20;65.15
76478;BME280;65309;49.790;18.972;2023-02-21T00:23:07;96388.28;;;8.19;65.04
76478;BME280;65309;49.790;18.972;2023-02-21T00:28:31;96368.34;;;8.24;64.96
76478;BME280;65309;49.790;18.972;2023-02-21T00:33:51;96363.41;;;8.28;64.90
76478;BME280;65309;49.790;18.972;2023-02-21T00:39:12;96361.88;;;8.27;64.99
76478;BME280;65309;49.790;18.972;2023-02-21T00:44:34;96372.00;;;8.30;65.23
76478;BME280;65309;49.790;18.972;2023-02-21T00:49:55;96361.63;;;8.25;66.11
76478;BME280;65309;49.790;18.972;2023-02-21T00:55:16;96364.56;;;8.21;66.37
76478;BME280;65309;49.790;18.972;2023-02-21T01:00:38;96361.31;;;8.23;65.93
76478;BME280;65309;49.790;18.972;2023-02-21T01:05:58;96346.13;;;8.27;65.97
76478;BME280;65309;49.790;18.972;2023-02-21T01:11:20;96362.66;;;8.27;66.55
76478;BME280;65309;49.790;18.972;2023-02-21T01:16:42;96351.81;;;8.24;66.71
76478;BME280;65309;49.790;18.972;2023-02-21T01:22:13;96374.91;;;8.26;67.16
76478;BME280;65309;49.790;18.972;2023-02-21T01:27:34;96343.50;;;8.33;66.28
76478;BME280;65309;49.790;18.972;2023-02-21T01:32:57;96331.72;;;8.32;66.71
76478;BME280;65309;49.790;18.972;2023-02-21T01:38:17;96334.94;;;8.31;67.31
76478;BME280;65309;49.790;18.972;2023-02-21T01:43:58;96343.84;;;8.26;67.76
76478;BME280;65309;49.790;18.972;2023-02-21T01:49:20;96344.44;;;8.30;67.42
76478;BME280;65309;49.790;18.972;2023-02-21T01:54:45;96338.03;;;8.24;67.26
76478;BME280;65309;49.790;18.972;2023-02-21T02:00:09;96336.63;;;8.14;67.97
76478;BME280;65309;49.790;18.972;2023-02-21T02:05:32;96336.13;;;8.15;68.08
76478;BME280;65309;49.790;18.972;2023-02-21T02:11:01;96336.63;;;8.14;67.31
76478;BME280;65309;49.790;18.972;2023-02-21T02:16:29;96319.34;;;8.13;68.43
76478;BME280;65309;49.790;18.972;2023-02-21T02:27:54;96290.47;;;8.09;67.86
76478;BME280;65309;49.790;18.972;2023-02-21T02:33:42;96313.16;;;8.04;69.12
76478;BME280;65309;49.790;18.972;2023-02-21T02:38:54;96308.88;;;8.03;69.12
76478;BME280;65309;49.790;18.972;2023-02-21T02:44:01;96299.38;;;8.04;68.37
76478;BME280;65309;49.790;18.972;2023-02-21T02:49:09;96314.00;;;7.95;69.07
76478;BME280;65309;49.790;18.972;2023-02-21T02:54:14;96317.44;;;8.05;68.73
76478;BME280;65309;49.790;18.972;2023-02-21T02:59:20;96306.41;;;8.05;68.88
76478;BME280;65309;49.790;18.972;2023-02-21T03:04:37;96315.22;;;7.94;69.61
76478;BME280;65309;49.790;18.972;2023-02-21T03:09:48;96292.16;;;7.92;69.46
76478;BME280;65309;49.790;18.972;2023-02-21T03:14:59;96299.19;;;7.93;68.94
76478;BME280;65309;49.790;18.972;2023-02-21T03:20:04;96305.81;;;7.86;69.26
76478;BME280;65309;49.790;18.972;2023-02-21T03:25:10;96305.16;;;7.91;69.08
76478;BME280;65309;49.790;18.972;2023-02-21T03:30:13;96314.06;;;7.86;69.71
76478;BME280;65309;49.790;18.972;2023-02-21T03:35:16;96304.13;;;7.89;69.07
76478;BME280;65309;49.790;18.972;2023-02-21T03:40:21;96324.63;;;7.88;69.13
76478;BME280;65309;49.790;18.972;2023-02-21T03:45:24;96319.75;;;7.82;70.21
76478;BME280;65309;49.790;18.972;2023-02-21T03:50:26;96308.63;;;7.77;70.07
76478;BME280;65309;49.790;18.972;2023-02-21T03:55:30;96308.19;;;7.78;69.70
76478;BME280;65309;49.790;18.972;2023-02-21T04:00:32;96311.69;;;7.79;69.48
76478;BME280;65309;49.790;18.972;2023-02-21T04:05:34;96307.91;;;7.76;69.69
76478;BME280;65309;49.790;18.972;2023-02-21T04:10:37;96314.81;;;7.72;70.37
76478;BME280;65309;49.790;18.972;2023-02-21T04:15:53;96305.63;;;7.75;70.71
76478;BME280;65309;49.790;18.972;2023-02-21T04:20:55;96317.00;;;7.68;70.99
76478;BME280;65309;49.790;18.972;2023-02-21T04:25:58;96316.50;;;7.69;70.99
76478;BME280;65309;49.790;18.972;2023-02-21T04:31:00;96314.34;;;7.73;70.70
76478;BME280;65309;49.790;18.972;2023-02-21T04:36:02;96305.88;;;7.62;71.58
76478;BME280;65309;49.790;18.972;2023-02-21T04:41:06;96301.00;;;7.57;72.21
76478;BME280;65309;49.790;18.972;2023-02-21T04:46:08;96309.28;;;7.57;72.02
76478;BME280;65309;49.790;18.972;2023-02-21T04:51:10;96302.91;;;7.51;72.05
76478;BME280;65309;49.790;18.972;2023-02-21T04:56:19;96308.41;;;7.51;73.22
76478;BME280;65309;49.790;18.972;2023-02-21T05:01:22;96315.19;;;7.41;73.77
76478;BME280;65309;49.790;18.972;2023-02-21T05:06:28;96306.66;;;7.39;74.33
76478;BME280;65309;49.790;18.972;2023-02-21T05:11:33;96315.38;;;7.37;74.43
76478;BME280;65309;49.790;18.972;2023-02-21T05:16:36;96310.97;;;7.31;74.97
76478;BME280;65309;49.790;18.972;2023-02-21T05:21:38;96311.28;;;7.33;74.56
76478;BME280;65309;49.790;18.972;2023-02-21T05:26:42;96303.03;;;7.33;75.37
76478;BME280;65309;49.790;18.972;2023-02-21T05:31:44;96307.78;;;7.32;75.59
76478;BME280;65309;49.790;18.972;2023-02-21T05:36:46;96327.50;;;7.31;75.59
76478;BME280;65309;49.790;18.972;2023-02-21T05:41:50;96329.56;;;7.21;76.31
76478;BME280;65309;49.790;18.972;2023-02-21T05:46:52;96326.63;;;7.25;76.31
76478;BME280;65309;49.790;18.972;2023-02-21T05:51:54;96309.41;;;7.39;75.86
76478;BME280;65309;49.790;18.972;2023-02-21T05:56:58;96322.31;;;7.48;74.12
76478;BME280;65309;49.790;18.972;2023-02-21T06:02:00;96319.56;;;7.48;74.41
76478;BME280;65309;49.790;18.972;2023-02-21T06:07:02;96324.03;;;7.45;74.58
76478;BME280;65309;49.790;18.972;2023-02-21T06:12:05;96327.38;;;7.49;75.33
76478;BME280;65309;49.790;18.972;2023-02-21T06:17:07;96338.56;;;7.46;75.40
76478;BME280;65309;49.790;18.972;2023-02-21T06:22:09;96348.22;;;7.41;75.71
76478;BME280;65309;49.790;18.972;2023-02-21T06:27:13;96359.50;;;7.43;75.32
76478;BME280;65309;49.790;18.972;2023-02-21T06:32:16;96352.78;;;7.44;76.37
76478;BME280;65309;49.790;18.972;2023-02-21T06:37:18;96371.41;;;7.49;75.83
76478;BME280;65309;49.790;18.972;2023-02-21T06:42:21;96363.66;;;7.62;75.25
76478;BME280;65309;49.790;18.972;2023-02-21T06:47:23;96371.81;;;7.80;75.17
76478;BME280;65309;49.790;18.972;2023-02-21T06:52:25;96379.47;;;7.76;74.02
76478;BME280;65309;49.790;18.972;2023-02-21T06:57:28;96380.41;;;7.73;74.68
76478;BME280;65309;49.790;18.972;2023-02-21T07:02:30;96383.78;;;7.68;75.34
76478;BME280;65309;49.790;18.972;2023-02-21T07:07:33;96386.78;;;7.56;76.23
76478;BME280;65309;49.790;18.972;2023-02-21T07:12:36;96395.47;;;7.63;76.47
76478;BME280;65309;49.790;18.972;2023-02-21T07:17:38;96380.19;;;7.62;75.65
76478;BME280;65309;49.790;18.972;2023-02-21T07:22:40;96397.78;;;7.56;76.71
76478;BME280;65309;49.790;18.972;2023-02-21T07:27:45;96404.38;;;7.58;77.07
76478;BME280;65309;49.790;18.972;2023-02-21T07:32:47;96401.25;;;7.65;77.10
76478;BME280;65309;49.790;18.972;2023-02-21T07:37:49;96399.66;;;7.73;77.31
76478;BME280;65309;49.790;18.972;2023-02-21T07:42:52;96387.78;;;7.67;78.17
76478;BME280;65309;49.790;18.972;2023-02-21T07:47:54;96408.34;;;7.57;80.60
76478;BME280;65309;49.790;18.972;2023-02-21T07:52:56;96409.91;;;7.25;81.13
76478;BME280;65309;49.790;18.972;2023-02-21T07:58:02;96415.50;;;7.31;82.32
76478;BME280;65309;49.790;18.972;2023-02-21T08:03:04;96427.66;;;7.15;81.33
76478;BME280;65309;49.790;18.972;2023-02-21T08:08:06;96435.69;;;7.28;80.92
76478;BME280;65309;49.790;18.972;2023-02-21T08:13:10;96454.09;;;7.13;83.15
76478;BME280;65309;49.790;18.972;2023-02-21T08:18:14;96444.66;;;7.14;84.77
76478;BME280;65309;49.790;18.972;2023-02-21T08:23:20;96452.91;;;7.05;85.78
76478;BME280;65309;49.790;18.972;2023-02-21T08:28:23;96447.41;;;7.05;86.04
76478;BME280;65309;49.790;18.972;2023-02-21T08:33:25;96451.72;;;6.97;85.90
76478;BME280;65309;49.790;18.972;2023-02-21T08:38:27;96448.91;;;7.06;85.99
76478;BME280;65309;49.790;18.972;2023-02-21T08:43:31;96446.56;;;7.22;86.24
76478;BME280;65309;49.790;18.972;2023-02-21T08:48:33;96439.97;;;7.29;84.87
76478;BME280;65309;49.790;18.972;2023-02-21T08:53:35;96437.38;;;7.34;84.67
76478;BME280;65309;49.790;18.972;2023-02-21T08:58:38;96437.97;;;7.38;85.77
76478;BME280;65309;49.790;18.972;2023-02-21T09:03:40;96435.72;;;7.52;84.24
76478;BME280;65309;49.790;18.972;2023-02-21T09:08:42;96463.38;;;7.57;83.86
76478;BME280;65309;49.790;18.972;2023-02-21T09:13:45;96442.31;;;7.54;84.09
76478;BME280;65309;49.790;18.972;2023-02-21T09:18:54;96467.31;;;7.65;83.34
76478;BME280;65309;49.790;18.972;2023-02-21T09:23:56;96459.00;;;7.74;82.97
76478;BME280;65309;49.790;18.972;2023-02-21T09:29:01;96462.31;;;8.02;82.08
76478;BME280;65309;49.790;18.972;2023-02-21T09:34:03;96472.06;;;8.12;80.66
76478;BME280;65309;49.790;18.972;2023-02-21T09:39:05;96472.16;;;8.42;79.11
76478;BME280;65309;49.790;18.972;2023-02-21T09:44:14;96469.81;;;8.78;78.74
76478;BME280;65309;49.790;18.972;2023-02-21T09:49:19;96468.94;;;8.72;78.09
76478;BME280;65309;49.790;18.972;2023-02-21T09:54:24;96458.13;;;8.84;76.17
76478;BME280;65309;49.790;18.972;2023-02-21T09:59:28;96465.91;;;8.70;77.11
76478;BME280;65309;49.790;18.972;2023-02-21T10:04:37;96474.56;;;8.63;77.51
76478;BME280;65309;49.790;18.972;2023-02-21T10:09:47;96470.81;;;8.52;76.69
76478;BME280;65309;49.790;18.972;2023-02-21T10:15:07;96467.72;;;8.73;76.51
76478;BME280;65309;49.790;18.972;2023-02-21T10:20:22;96456.13;;;8.69;74.95
76478;BME280;65309;49.790;18.972;2023-02-21T10:25:30;96482.28;;;8.89;74.85
76478;BME280;65309;49.790;18.972;2023-02-21T10:30:35;96489.31;;;8.90;74.80
76478;BME280;65309;49.790;18.972;2023-02-21T10:35:38;96478.19;;;8.69;75.49
76478;BME280;65309;49.790;18.972;2023-02-21T10:40:42;96470.66;;;8.70;75.63
76478;BME280;65309;49.790;18.972;2023-02-21T10:45:50;96472.78;;;8.75;75.99
76478;BME280;65309;49.790;18.972;2023-02-21T10:51:05;96473.16;;;8.83;75.24
76478;BME280;65309;49.790;18.972;2023-02-21T10:56:23;96471.84;;;8.93;74.36
76478;BME280;65309;49.790;18.972;2023-02-21T11:01:34;96476.66;;;9.12;72.61
76478;BME280;65309;49.790;18.972;2023-02-21T11:06:38;96481.13;;;8.95;74.27
76478;BME280;65309;49.790;18.972;2023-02-21T11:11:45;96501.31;;;9.16;72.47
76478;BME280;65309;49.790;18.972;2023-02-21T11:17:06;96487.03;;;9.17;73.43
76478;BME280;65309;49.790;18.972;2023-02-21T11:22:16;96484.75;;;9.31;72.30
76478;BME280;65309;49.790;18.972;2023-02-21T11:27:19;96476.34;;;9.40;73.12
76478;BME280;65309;49.790;18.972;2023-02-21T11:32:26;96490.78;;;9.49;73.13
76478;BME280;65309;49.790;18.972;2023-02-21T11:37:29;96484.00;;;9.30;74.23
76478;BME280;65309;49.790;18.972;2023-02-21T11:42:33;96490.75;;;9.00;75.40
76478;BME280;65309;49.790;18.972;2023-02-21T11:47:42;96472.22;;;9.00;75.06
76478;BME280;65309;49.790;18.972;2023-02-21T11:52:50;96478.28;;;9.19;74.98
76478;BME280;65309;49.790;18.972;2023-02-21T11:58:00;96494.81;;;9.19;74.73
76478;BME280;65309;49.790;18.972;2023-02-21T12:03:21;96485.50;;;9.16;75.16
76478;BME280;65309;49.790;18.972;2023-02-21T12:08:43;96501.22;;;9.25;73.11
76478;BME280;65309;49.790;18.972;2023-02-21T12:13:54;96508.97;;;9.56;72.74
76478;BME280;65309;49.790;18.972;2023-02-21T12:19:15;96498.13;;;9.87;72.99
76478;BME280;65309;49.790;18.972;2023-02-21T12:24:31;96487.84;;;9.88;71.00
76478;BME280;65309;49.790;18.972;2023-02-21T12:29:48;96490.09;;;10.44;68.62
76478;BME280;65309;49.790;18.972;2023-02-21T12:35:03;96489.34;;;10.70;68.85
76478;BME280;65309;49.790;18.972;2023-02-21T12:40:18;96474.88;;;10.14;68.93
76478;BME280;65309;49.790;18.972;2023-02-21T12:45:32;96478.59;;;9.91;72.84
76478;BME280;65309;49.790;18.972;2023-02-21T12:50:42;96496.72;;;9.42;77.74
76478;BME280;65309;49.790;18.972;2023-02-21T12:55:47;96501.69;;;8.80;80.99
76478;BME280;65309;49.790;18.972;2023-02-21T13:00:56;96505.09;;;8.36;81.80
76478;BME280;65309;49.790;18.972;2023-02-21T13:06:05;96510.28;;;8.43;83.15
76478;BME280;65309;49.790;18.972;2023-02-21T13:11:13;96505.50;;;8.44;82.83
76478;BME280;65309;49.790;18.972;2023-02-21T13:16:16;96511.84;;;8.35;84.04
76478;BME280;65309;49.790;18.972;2023-02-21T13:21:30;96508.34;;;8.35;84.32
76478;BME280;65309;49.790;18.972;2023-02-21T13:26:46;96528.56;;;8.31;85.51
76478;BME280;65309;49.790;18.972;2023-02-21T13:31:58;96519.91;;;8.15;85.68
76478;BME280;65309;49.790;18.972;2023-02-21T13:37:06;96523.44;;;8.39;84.32
76478;BME280;65309;49.790;18.972;2023-02-21T13:42:10;96524.25;;;8.54;83.83
76478;BME280;65309;49.790;18.972;2023-02-21T13:47:17;96516.56;;;8.58;85.10
76478;BME280;65309;49.790;18.972;2023-02-21T13:52:36;96517.22;;;8.53;85.44
76478;BME280;65309;49.790;18.972;2023-02-21T13:58:30;96521.19;;;8.38;85.40
76478;BME280;65309;49.790;18.972;2023-02-21T14:03:33;96530.19;;;8.14;87.51
76478;BME280;65309;49.790;18.972;2023-02-21T14:08:40;96538.66;;;8.02;88.04
76478;BME280;65309;49.790;18.972;2023-02-21T14:13:46;96541.41;;;8.02;88.60
76478;BME280;65309;49.790;18.972;2023-02-21T14:18:54;96536.22;;;8.04;88.59
76478;BME280;65309;49.790;18.972;2023-02-21T14:24:00;96539.97;;;7.92;89.07
76478;BME280;65309;49.790;18.972;2023-02-21T14:29:13;96538.84;;;7.98;89.89
76478;BME280;65309;49.790;18.972;2023-02-21T14:34:20;96558.59;;;7.97;90.73
76478;BME280;65309;49.790;18.972;2023-02-21T14:39:30;96569.09;;;7.74;89.65
76478;BME280;65309;49.790;18.972;2023-02-21T14:44:38;96555.13;;;7.54;89.28
76478;BME280;65309;49.790;18.972;2023-02-21T14:50:03;96556.28;;;7.29;88.87
76478;BME280;65309;49.790;18.972;2023-02-21T14:55:25;96565.59;;;7.32;89.90
76478;BME280;65309;49.790;18.972;2023-02-21T15:00:37;96564.63;;;7.44;90.13
76478;BME280;65309;49.790;18.972;2023-02-21T15:05:48;96571.50;;;7.39;90.38
76478;BME280;65309;49.790;18.972;2023-02-21T15:10:59;96575.94;;;7.46;90.69
76478;BME280;65309;49.790;18.972;2023-02-21T15:16:04;96568.47;;;7.47;89.76
76478;BME280;65309;49.790;18.972;2023-02-21T15:21:16;96579.41;;;7.56;88.96
76478;BME280;65309;49.790;18.972;2023-02-21T15:26:23;96580.06;;;7.51;87.97
76478;BME280;65309;49.790;18.972;2023-02-21T15:31:26;96577.31;;;7.51;87.58
76478;BME280;65309;49.790;18.972;2023-02-21T15:36:29;96578.69;;;7.46;87.44
76478;BME280;65309;49.790;18.972;2023-02-21T15:41:37;96575.63;;;7.44;87.57
76478;BME280;65309;49.790;18.972;2023-02-21T15:46:43;96578.28;;;7.29;86.82
76478;BME280;65309;49.790;18.972;2023-02-21T15:51:48;96571.44;;;7.16;85.99
76478;BME280;65309;49.790;18.972;2023-02-21T15:57:20;96571.44;;;6.98;86.42
76478;BME280;65309;49.790;18.972;2023-02-21T16:02:24;96570.88;;;6.84;88.09
76478;BME280;65309;49.790;18.972;2023-02-21T16:07:30;96575.75;;;6.71;88.00
76478;BME280;65309;49.790;18.972;2023-02-21T16:12:40;96573.31;;;6.64;87.42
76478;BME280;65309;49.790;18.972;2023-02-21T16:17:52;96582.47;;;6.52;87.89
76478;BME280;65309;49.790;18.972;2023-02-21T16:23:19;96588.25;;;6.45;88.59
76478;BME280;65309;49.790;18.972;2023-02-21T16:28:24;96595.88;;;6.41;88.23
76478;BME280;65309;49.790;18.972;2023-02-21T16:33:27;96597.09;;;6.40;89.19
76478;BME280;65309;49.790;18.972;2023-02-21T16:38:30;96597.09;;;6.40;89.86
76478;BME280;65309;49.790;18.972;2023-02-21T16:43:33;96612.84;;;6.58;90.88
76478;BME280;65309;49.790;18.972;2023-02-21T16:48:35;96605.06;;;6.65;90.31
76478;BME280;65309;49.790;18.972;2023-02-21T16:53:37;96613.91;;;6.69;90.26
76478;BME280;65309;49.790;18.972;2023-02-21T16:58:42;96617.59;;;6.84;88.70
76478;BME280;65309;49.790;18.972;2023-02-21T17:03:46;96617.28;;;7.01;89.57
76478;BME280;65309;49.790;18.972;2023-02-21T17:08:48;96623.06;;;7.12;88.87
76478;BME280;65309;49.790;18.972;2023-02-21T17:13:51;96623.84;;;7.30;88.20
76478;BME280;65309;49.790;18.972;2023-02-21T17:18:53;96629.28;;;7.39;87.53
76478;BME280;65309;49.790;18.972;2023-02-21T17:23:55;96650.53;;;7.48;87.58
76478;BME280;65309;49.790;18.972;2023-02-21T17:28:59;96646.13;;;7.42;87.64
76478;BME280;65309;49.790;18.972;2023-02-21T17:34:02;96642.31;;;7.30;88.01
76478;BME280;65309;49.790;18.972;2023-02-21T17:39:04;96653.59;;;7.32;88.82
76478;BME280;65309;49.790;18.972;2023-02-21T17:44:08;96656.06;;;7.30;88.70
76478;BME280;65309;49.790;18.972;2023-02-21T17:49:10;96644.59;;;7.22;89.17
76478;BME280;65309;49.790;18.972;2023-02-21T17:54:13;96658.22;;;7.17;89.68
76478;BME280;65309;49.790;18.972;2023-02-21T17:59:17;96644.16;;;7.15;89.35
76478;BME280;65309;49.790;18.972;2023-02-21T18:04:19;96656.53;;;7.19;89.49
76478;BME280;65309;49.790;18.972;2023-02-21T18:09:22;96654.53;;;7.20;88.73
76478;BME280;65309;49.790;18.972;2023-02-21T18:14:27;96666.47;;;7.26;87.57
76478;BME280;65309;49.790;18.972;2023-02-21T18:19:31;96674.09;;;7.31;87.75
76478;BME280;65309;49.790;18.972;2023-02-21T18:24:33;96669.81;;;7.30;86.84
76478;BME280;65309;49.790;18.972;2023-02-21T18:29:36;96676.84;;;7.31;86.99
76478;BME280;65309;49.790;18.972;2023-02-21T18:34:38;96672.56;;;7.30;86.66
76478;BME280;65309;49.790;18.972;2023-02-21T18:39:40;96678.97;;;7.27;86.67
76478;BME280;65309;49.790;18.972;2023-02-21T18:44:43;96687.09;;;7.21;86.15
76478;BME280;65309;49.790;18.972;2023-02-21T18:49:46;96686.31;;;7.21;86.52
76478;BME280;65309;49.790;18.972;2023-02-21T18:54:49;96685.72;;;7.17;86.10
76478;BME280;65309;49.790;18.972;2023-02-21T18:59:52;96683.72;;;7.08;86.71
76478;BME280;65309;49.790;18.972;2023-02-21T19:04:55;96685.56;;;7.20;86.83
76478;BME280;65309;49.790;18.972;2023-02-21T19:09:57;96683.88;;;7.05;86.75
76478;BME280;65309;49.790;18.972;2023-02-21T19:15:00;96692.28;;;7.01;87.30
76478;BME280;65309;49.790;18.972;2023-02-21T19:20:03;96693.03;;;7.11;86.92
76478;BME280;65309;49.790;18.972;2023-02-21T19:25:13;96695.19;;;7.25;85.87
76478;BME280;65309;49.790;18.972;2023-02-21T19:30:18;96692.28;;;7.37;85.36
76478;BME280;65309;49.790;18.972;2023-02-21T19:35:20;96691.34;;;7.40;85.83
76478;BME280;65309;49.790;18.972;2023-02-21T19:40:24;96685.69;;;7.44;85.71
76478;BME280;65309;49.790;18.972;2023-02-21T19:45:29;96689.38;;;7.41;85.93
76478;BME280;65309;49.790;18.972;2023-02-21T19:50:31;96682.66;;;7.42;85.55
76478;BME280;65309;49.790;18.972;2023-02-21T19:55:35;96705.28;;;7.37;85.16
76478;BME280;65309;49.790;18.972;2023-02-21T20:00:38;96711.22;;;7.35;85.01
76478;BME280;65309;49.790;18.972;2023-02-21T20:05:44;96706.47;;;7.54;83.91
76478;BME280;65309;49.790;18.972;2023-02-21T20:10:46;96731.09;;;7.67;84.73
76478;BME280;65309;49.790;18.972;2023-02-21T20:15:49;96734.00;;;7.45;82.98
76478;BME280;65309;49.790;18.972;2023-02-21T20:20:51;96727.28;;;7.37;84.43
76478;BME280;65309;49.790;18.972;2023-02-21T20:25:53;96739.81;;;7.29;84.72
76478;BME280;65309;49.790;18.972;2023-02-21T20:30:57;96739.38;;;7.30;84.39
76478;BME280;65309;49.790;18.972;2023-02-21T20:35:59;96745.91;;;7.24;84.61
76478;BME280;65309;49.790;18.972;2023-02-21T20:41:01;96746.53;;;7.19;83.81
76478;BME280;65309;49.790;18.972;2023-02-21T20:46:05;96745.44;;;6.98;83.52
76478;BME280;65309;49.790;18.972;2023-02-21T20:51:07;96756.59;;;7.04;83.48
76478;BME280;65309;49.790;18.972;2023-02-21T20:56:09;96762.38;;;7.06;83.26
76478;BME280;65309;49.790;18.972;2023-02-21T21:01:13;96762.09;;;7.04;83.23
76478;BME280;65309;49.790;18.972;2023-02-21T21:06:16;96759.03;;;6.92;83.22
76478;BME280;65309;49.790;18.972;2023-02-21T21:11:18;96770.03;;;6.92;82.37
76478;BME280;65309;49.790;18.972;2023-02-21T21:16:23;96778.91;;;6.97;82.72
76478;BME280;65309;49.790;18.972;2023-02-21T21:21:29;96788.63;;;6.79;80.15
76478;BME280;65309;49.790;18.972;2023-02-21T21:26:32;96791.41;;;6.48;77.90
76478;BME280;65309;49.790;18.972;2023-02-21T21:31:35;96789.03;;;6.29;76.78
76478;BME280;65309;49.790;18.972;2023-02-21T21:36:37;96801.19;;;6.19;76.14
76478;BME280;65309;49.790;18.972;2023-02-21T21:41:40;96809.97;;;6.05;77.07
76478;BME280;65309;49.790;18.972;2023-02-21T21:46:49;96810.53;;;5.99;77.09
76478;BME280;65309;49.790;18.972;2023-02-21T21:51:52;96817.78;;;5.93;77.39
76478;BME280;65309;49.790;18.972;2023-02-21T21:56:58;96822.34;;;5.87;78.45
76478;BME280;65309;49.790;18.972;2023-02-21T22:02:01;96824.44;;;5.83;77.46
76478;BME280;65309;49.790;18.972;2023-02-21T22:07:03;96819.56;;;5.66;79.13
76478;BME280;65309;49.790;18.972;2023-02-21T22:12:06;96823.75;;;5.57;79.00
76478;BME280;65309;49.790;18.972;2023-02-21T22:17:10;96824.28;;;5.65;78.61
76478;BME280;65309;49.790;18.972;2023-02-21T22:22:12;96816.88;;;5.53;78.86
76478;BME280;65309;49.790;18.972;2023-02-21T22:27:16;96832.44;;;5.56;78.47
76478;BME280;65309;49.790;18.972;2023-02-21T22:32:20;96836.50;;;5.51;78.77
76478;BME280;65309;49.790;18.972;2023-02-21T22:37:22;96829.22;;;5.36;77.36
76478;BME280;65309;49.790;18.972;2023-02-21T22:42:24;96835.03;;;5.38;77.25
76478;BME280;65309;49.790;18.972;2023-02-21T22:47:27;96843.25;;;5.38;76.15
76478;BME280;65309;49.790;18.972;2023-02-21T22:52:30;96831.41;;;5.41;75.16
76478;BME280;65309;49.790;18.972;2023-02-21T22:57:33;96839.53;;;5.32;76.12
76478;BME280;65309;49.790;18.972;2023-02-21T23:02:37;96842.19;;;5.23;76.42
76478;BME280;65309;49.790;18.972;2023-02-21T23:07:39;96857.78;;;5.26;74.67
76478;BME280;65309;49.790;18.972;2023-02-21T23:12:43;96846.16;;;5.22;74.46
76478;BME280;65309;49.790;18.972;2023-02-21T23:17:48;96850.25;;;5.04;74.21
76478;BME280;65309;49.790;18.972;2023-02-21T23:22:52;96855.94;;;4.85;76.05
76478;BME280;65309;49.790;18.972;2023-02-21T23:27:56;96857.69;;;4.91;75.44
76478;BME280;65309;49.790;18.972;2023-02-21T23:33:00;96851.69;;;4.96;73.99
76478;BME280;65309;49.790;18.972;2023-02-21T23:38:02;96849.03;;;4.80;74.88
76478;BME280;65309;49.790;18.972;2023-02-21T23:43:04;96862.28;;;4.94;74.93
76478;BME280;65309;49.790;18.972;2023-02-21T23:48:10;96863.38;;;5.09;73.62
76478;BME280;65309;49.790;18.972;2023-02-21T23:53:18;96851.97;;;5.11;72.86
76478;BME280;65309;49.790;18.972;2023-02-21T23:58:20;96856.56;;;5.01;74.07
